Flora, IL

08:49 AM CDT am 22. Oktober 2014 (GMT -0500)
Flora Municipal | Change Station
CLOSE
Current Station
Flughafen
Location: Flora,
Höhe: 472 ft
Wetterstationen in der Umgebung

Höhe 472 ft 38.67 °N, 88.45 °W | Updated 14 minutes ago

Heiter
Heiter
43 °F
gefühlte 41 °F
N
4
Wind Wechselnd Wind aus Ost-Nordost

Heute
Max. -- | schwach -- °F
--% Regenrisiko
Gestern
Max. -- | schwach -- °F
Precip. -- inch
7:10 AM 6:05 PM
Letztes Viertel, 2% visible
Druck 30.34 inch
Sichtweite 10.0 Meilen
Wolken Heiter
Windchill 41 °F
Taupunkt 40 °F
Feuchtigkeit 91%
Regen 0.00 inch
Schneehöhe Nicht verfügbar..
UV 1 von 12
Pollen 1.80 von 12
Luftqualität Nicht verfügbar..
Flu Activity No Activity
METAR KFOA 221335Z AUTO 06003KT 10SM CLR 06/05 A3034 RMK AO2 T00610047

More Conditions Fewer Conditions

Druck 30.34 inch
Sichtweite 10.0 Meilen
Wolken Heiter
Windchill 41 °F
Taupunkt 40 °F
Feuchtigkeit 91%
Regen 0.00 inch
Schneehöhe Nicht verfügbar..
UV 1 von 12
Pollen 1.80 von 12
Luftqualität Nicht verfügbar..
Flu Activity No Activity
METAR KFOA 221335Z AUTO 06003KT 10SM CLR 06/05 A3034 RMK AO2 T00610047

More Conditions Fewer Conditions

10-Day Weather Forecast

Almanac

Astronomie

Oct. 22, 2014 Aufgang Untergang
Genaue Zeit 07:10 CDT 18:05 CDT
Bürgerliche Dämmerung 06:43 CDT 18:32 CDT
Nautische Dämmerung 06:12 CDT 19:03 CDT
Astronomische Dämmerung 05:41 CDT 19:34 CDT
Mond 05:52 CDT 17:31 CDT
Länge des sichtbaren Lichts 11h 49m
Tageslänge
10h 55m
Tomorrow will be 2m 21s shorter.
Letztes Viertel, 2% of the Moon is Illuminated
Heute
Letztes Viertel
Okt 23
Neu
Okt 30
Erstes Viertel
Nov 6
Vollmond
Nov 14
Letztes Viertel

Heutige Rekorde

State Highs State Lows

Community

WunderPhotos

Upload Photos

1,763,919 Fotos hochgeladen!

Nearby

Schneehöhe

Station Depth Höhe
Kein Neuschnee gemeldet.

Erdbebenaktivität

Stadt Distance Mag. Time & Date
No recent earthquake activity has been reported nearby.
Minimum magnitude displayed is 2.5.

küstennahe Wassertemperaturen

Ort Temperatur
Kein Stationsbericht

Wetterstationen in der Umgebung